Time;durP1;ratioP1;P1;durP2;ratioP2;P2;SDS_P1;SDS_P2;PMS_P1;PMS_P2;Temp;Humidity;BMP_temperature;BMP_pressure;BME280_temperature;BME280_humidity;BME280_pressure;Samples;Min_cycle;Max_cycle;Signal;HPM_P1;HPM_P2
2022/07/15 00:01:50;;;;;;;3.80;1.25;;;21.30;63.40;;;;;;5085229;27;20436;-19
2022/07/15 00:04:16;;;;;;;1.30;1.20;;;21.20;63.70;;;;;;5086340;28;20028;-28
2022/07/15 00:06:42;;;;;;;1.52;1.20;;;21.10;64.00;;;;;;5086582;27;20084;-19
2022/07/15 00:09:07;;;;;;;1.85;1.00;;;21.00;64.40;;;;;;5078420;28;20032;-19
2022/07/15 00:11:33;;;;;;;2.00;1.00;;;21.10;64.30;;;;;;5084250;27;20040;-19
2022/07/15 00:13:58;;;;;;;2.13;0.90;;;21.00;64.40;;;;;;5084966;27;20044;-19
2022/07/15 00:16:24;;;;;;;1.48;1.20;;;21.10;64.40;;;;;;5087903;27;20099;-20
2022/07/15 00:18:50;;;;;;;3.08;1.02;;;21.10;64.30;;;;;;5085832;27;20044;-19
2022/07/15 00:21:15;;;;;;;1.05;0.95;;;21.00;64.60;;;;;;5084415;28;20512;-19
2022/07/15 00:23:41;;;;;;;2.58;1.40;;;20.90;65.00;;;;;;5084378;27;20047;-19
2022/07/15 00:26:06;;;;;;;1.88;1.10;;;20.80;65.20;;;;;;5085263;27;20135;-19
2022/07/15 00:28:32;;;;;;;2.08;1.20;;;20.90;65.10;;;;;;5084827;28;20123;-20
2022/07/15 00:30:57;;;;;;;1.58;1.25;;;20.90;65.10;;;;;;5088268;27;20433;-19
2022/07/15 00:33:23;;;;;;;1.95;1.52;;;21.00;65.00;;;;;;5085402;28;20046;-19
2022/07/15 00:35:49;;;;;;;1.40;1.10;;;20.90;65.10;;;;;;5085490;27;20040;-19
2022/07/15 00:38:15;;;;;;;4.63;1.20;;;20.90;65.30;;;;;;5084869;27;20770;-19
2022/07/15 00:40:41;;;;;;;1.25;0.82;;;20.90;65.60;;;;;;5086521;27;20537;-20
2022/07/15 00:43:06;;;;;;;2.47;1.00;;;20.90;65.50;;;;;;5085241;27;20081;-23
2022/07/15 00:45:32;;;;;;;2.10;1.40;;;20.90;65.60;;;;;;5082943;28;20078;-19
2022/07/15 00:47:57;;;;;;;1.40;1.00;;;20.80;65.70;;;;;;5083884;27;20036;-19
2022/07/15 00:50:25;;;;;;;1.35;1.00;;;20.80;66.60;;;;;;5087080;27;20036;-20
2022/07/15 00:52:56;;;;;;;2.58;1.30;;;20.80;65.90;;;;;;5087171;27;20071;-19
2022/07/15 00:55:22;;;;;;;1.50;0.82;;;20.70;66.10;;;;;;5086631;27;20654;-19
2022/07/15 00:57:48;;;;;;;2.40;1.42;;;20.70;66.00;;;;;;5085889;27;20044;-19
2022/07/15 01:00:14;;;;;;;2.75;0.90;;;20.60;66.20;;;;;;5068077;28;20040;-20
2022/07/15 01:02:42;;;;;;;1.27;0.80;;;20.60;66.60;;;;;;5084952;27;20494;-20
2022/07/15 01:05:10;;;;;;;1.45;1.00;;;20.60;66.60;;;;;;5084182;27;20044;-25
2022/07/15 01:07:36;;;;;;;1.73;1.17;;;20.60;66.40;;;;;;5084869;27;20040;-19
2022/07/15 01:10:01;;;;;;;2.55;1.77;;;20.60;66.50;;;;;;5085908;27;20051;-20
2022/07/15 01:12:27;;;;;;;1.15;0.82;;;20.60;66.20;;;;;;5084863;28;20040;-20
2022/07/15 01:14:53;;;;;;;1.48;1.23;;;20.60;66.60;;;;;;5084330;27;20036;-19
2022/07/15 01:17:18;;;;;;;3.30;1.13;;;20.50;66.60;;;;;;5085339;27;20448;-19
2022/07/15 01:19:44;;;;;;;1.17;1.08;;;20.50;66.80;;;;;;5083648;27;20025;-19
2022/07/15 01:22:09;;;;;;;1.85;1.15;;;20.50;66.80;;;;;;5083237;27;20085;-19
2022/07/15 01:24:35;;;;;;;1.30;0.88;;;20.50;66.80;;;;;;5086435;28;20537;-19
2022/07/15 01:27:01;;;;;;;3.63;1.38;;;20.50;66.80;;;;;;5085982;27;20119;-19
2022/07/15 01:29:27;;;;;;;1.08;1.08;;;20.50;67.40;;;;;;5084565;27;20051;-26
2022/07/15 01:31:53;;;;;;;1.45;1.10;;;20.50;66.50;;;;;;5084849;27;20056;-20
2022/07/15 01:34:19;;;;;;;1.98;1.40;;;20.40;66.70;;;;;;5086586;27;20036;-20
2022/07/15 01:36:44;;;;;;;2.75;1.38;;;20.40;66.90;;;;;;5086955;27;20028;-19
2022/07/15 01:39:10;;;;;;;2.00;1.00;;;20.40;67.60;;;;;;5078688;27;20126;-20
2022/07/15 01:41:36;;;;;;;2.03;1.20;;;20.40;66.90;;;;;;5082116;27;20482;-19
2022/07/15 01:44:01;;;;;;;2.70;1.20;;;20.30;67.00;;;;;;5083381;27;20044;-19
2022/07/15 01:46:27;;;;;;;1.20;0.88;;;20.40;66.90;;;;;;5086084;27;20040;-21
2022/07/15 01:51:36;;;;;;;1.73;1.13;;;20.40;66.80;;;;;;5086758;27;20124;-19
2022/07/15 01:54:02;;;;;;;1.92;1.20;;;20.30;66.90;;;;;;5082080;27;20123;-19
2022/07/15 01:56:28;;;;;;;1.85;1.33;;;20.30;67.00;;;;;;5084672;28;20097;-19
2022/07/15 01:58:53;;;;;;;1.95;1.15;;;20.30;67.10;;;;;;5080454;27;20511;-19
2022/07/15 02:01:19;;;;;;;2.53;1.02;;;20.30;67.30;;;;;;5083237;27;20126;-19
2022/07/15 02:03:44;;;;;;;0.95;0.77;;;20.20;68.40;;;;;;5087469;27;20093;-19
2022/07/15 02:06:10;;;;;;;1.45;0.98;;;20.20;67.40;;;;;;5081809;28;20051;-19
2022/07/15 02:08:36;;;;;;;4.47;1.17;;;20.20;67.50;;;;;;5085604;27;20035;-19
2022/07/15 02:11:01;;;;;;;4.00;1.52;;;20.20;67.60;;;;;;5084661;28;20056;-25
2022/07/15 02:13:27;;;;;;;1.10;1.00;;;20.10;67.70;;;;;;5085029;27;20131;-19
2022/07/15 02:15:53;;;;;;;2.38;1.30;;;20.10;67.90;;;;;;5085211;27;20052;-19
2022/07/15 02:18:18;;;;;;;1.17;1.08;;;20.00;68.10;;;;;;5083746;27;20038;-19
2022/07/15 02:20:44;;;;;;;1.60;1.50;;;20.00;68.00;;;;;;5085404;27;20525;-19
2022/07/15 02:23:10;;;;;;;1.20;1.00;;;20.00;68.10;;;;;;5083523;27;20131;-19
2022/07/15 02:25:36;;;;;;;1.25;1.00;;;19.80;68.50;;;;;;5082996;27;20559;-19
2022/07/15 02:28:03;;;;;;;2.13;1.25;;;20.00;68.10;;;;;;5085440;27;20126;-19
2022/07/15 02:30:31;;;;;;;2.72;1.25;;;20.00;68.20;;;;;;5084091;27;20034;-20
2022/07/15 02:32:57;;;;;;;2.05;1.30;;;20.00;68.20;;;;;;5083949;27;20059;-19
2022/07/15 02:35:22;;;;;;;1.48;0.98;;;20.00;68.30;;;;;;5082826;27;20039;-19
2022/07/15 02:37:48;;;;;;;2.40;1.00;;;20.00;68.20;;;;;;5083979;27;20028;-20
2022/07/15 02:40:13;;;;;;;2.88;1.20;;;20.00;68.30;;;;;;5083528;27;20044;-19
2022/07/15 02:42:39;;;;;;;1.85;1.27;;;19.90;68.30;;;;;;5085941;27;20420;-33
2022/07/15 02:45:06;;;;;;;1.20;0.90;;;19.90;68.40;;;;;;5080382;27;20044;-19
2022/07/15 02:47:31;;;;;;;1.50;1.27;;;19.90;68.60;;;;;;5083992;27;20089;-19
2022/07/15 02:49:57;;;;;;;1.17;1.00;;;19.90;68.50;;;;;;5083414;28;20043;-19
2022/07/15 02:52:22;;;;;;;2.72;1.20;;;19.90;68.50;;;;;;5083586;27;20050;-19
2022/07/15 02:54:48;;;;;;;1.80;1.08;;;19.90;68.50;;;;;;5084127;27;20167;-19
2022/07/15 02:57:13;;;;;;;1.75;1.20;;;19.80;68.80;;;;;;5081406;28;20051;-19
2022/07/15 02:59:39;;;;;;;1.60;0.80;;;19.90;68.80;;;;;;5085400;28;20040;-19
2022/07/15 03:02:05;;;;;;;1.20;1.10;;;19.90;68.50;;;;;;5074754;27;20044;-19
2022/07/15 03:04:31;;;;;;;1.17;1.10;;;19.80;68.70;;;;;;5085438;27;20047;-19
2022/07/15 03:06:56;;;;;;;1.70;1.30;;;19.80;68.70;;;;;;5082870;27;20047;-19
2022/07/15 03:09:22;;;;;;;1.98;1.15;;;19.80;69.10;;;;;;5082767;27;20100;-19
2022/07/15 03:11:47;;;;;;;3.55;1.42;;;19.70;69.20;;;;;;5082200;27;20044;-19
2022/07/15 03:14:13;;;;;;;1.02;0.95;;;19.70;69.20;;;;;;5083355;27;20063;-19
2022/07/15 03:16:38;;;;;;;2.20;1.63;;;19.70;69.50;;;;;;5082639;27;20036;-19
2022/07/15 03:19:04;;;;;;;2.25;1.10;;;19.60;69.40;;;;;;5082720;27;20517;-19
2022/07/15 03:21:30;;;;;;;1.65;1.30;;;19.60;69.40;;;;;;5083908;27;20040;-19
2022/07/15 03:23:56;;;;;;;1.30;1.00;;;19.60;69.60;;;;;;5082374;27;20038;-19
2022/07/15 03:26:21;;;;;;;1.42;0.82;;;19.70;69.30;;;;;;5082131;28;20036;-19
2022/07/15 03:28:47;;;;;;;3.53;1.20;;;19.60;69.30;;;;;;5083522;27;20067;-19
2022/07/15 03:31:13;;;;;;;1.83;1.52;;;19.60;69.40;;;;;;5082641;27;20044;-19
2022/07/15 03:33:38;;;;;;;2.90;1.05;;;19.70;69.40;;;;;;5084318;27;20418;-21
2022/07/15 03:36:05;;;;;;;1.45;1.17;;;19.50;69.60;;;;;;5081738;27;20097;-19
2022/07/15 03:38:31;;;;;;;1.23;1.00;;;19.50;69.70;;;;;;5086802;27;20044;-19
2022/07/15 03:40:56;;;;;;;1.60;1.20;;;19.50;69.80;;;;;;5086414;27;20402;-22
2022/07/15 03:43:26;;;;;;;1.77;1.42;;;19.50;69.80;;;;;;5087795;27;20118;-19
2022/07/15 03:45:52;;;;;;;2.78;0.90;;;19.50;69.60;;;;;;5085508;27;20414;-19
2022/07/15 03:48:18;;;;;;;1.48;1.13;;;19.50;69.90;;;;;;5086406;27;20040;-19
2022/07/15 03:50:43;;;;;;;2.45;1.55;;;19.40;70.20;;;;;;5087455;27;20508;-20
2022/07/15 03:53:09;;;;;;;2.15;1.15;;;19.20;70.60;;;;;;5085263;28;20527;-19
2022/07/15 03:55:36;;;;;;;3.65;1.83;;;19.30;70.50;;;;;;5085021;27;20040;-19
2022/07/15 03:58:01;;;;;;;1.20;1.10;;;19.40;70.20;;;;;;5085916;27;20089;-20
2022/07/15 04:00:27;;;;;;;1.48;1.27;;;19.40;70.00;;;;;;5087116;27;20172;-19
2022/07/15 04:02:53;;;;;;;1.67;1.10;;;19.30;70.10;;;;;;5086278;28;20111;-19
2022/07/15 04:05:18;;;;;;;1.42;1.30;;;19.30;70.40;;;;;;5086802;28;20044;-20
2022/07/15 04:07:44;;;;;;;2.55;1.40;;;19.30;70.30;;;;;;5084819;27;20044;-19
2022/07/15 04:10:09;;;;;;;2.38;1.23;;;19.30;70.10;;;;;;5086851;27;20047;-19
2022/07/15 04:12:35;;;;;;;1.40;1.15;;;19.30;70.10;;;;;;5088087;27;20040;-19
2022/07/15 04:15:00;;;;;;;1.75;1.13;;;19.20;70.30;;;;;;5086359;27;20056;-19
2022/07/15 04:17:26;;;;;;;2.72;1.38;;;19.20;70.60;;;;;;5083851;27;20452;-19
2022/07/15 04:19:52;;;;;;;1.52;1.40;;;19.20;70.80;;;;;;5084638;27;20075;-19
2022/07/15 04:22:17;;;;;;;2.25;1.05;;;19.20;71.00;;;;;;5085629;27;20136;-19
2022/07/15 04:24:43;;;;;;;1.63;1.10;;;19.10;70.90;;;;;;5086230;27;20422;-19
2022/07/15 04:27:08;;;;;;;2.42;0.90;;;19.10;70.90;;;;;;5083960;27;20115;-19
2022/07/15 04:29:35;;;;;;;2.03;1.20;;;19.10;70.90;;;;;;5086784;27;20036;-19
2022/07/15 04:32:01;;;;;;;1.52;1.30;;;19.10;71.00;;;;;;5084533;28;20519;-19
2022/07/15 04:34:27;;;;;;;2.15;1.05;;;19.10;70.90;;;;;;5085978;27;20502;-19
2022/07/15 04:36:52;;;;;;;2.13;1.20;;;19.10;71.10;;;;;;5089542;27;20039;-19
2022/07/15 04:39:18;;;;;;;2.13;1.38;;;19.10;71.00;;;;;;5083024;27;20185;-19
2022/07/15 04:41:43;;;;;;;3.33;1.33;;;19.10;71.10;;;;;;5085700;28;20548;-19
2022/07/15 04:44:09;;;;;;;1.40;1.20;;;19.10;71.50;;;;;;5085327;27;20055;-18
2022/07/15 04:46:34;;;;;;;2.10;1.70;;;19.00;71.80;;;;;;5086789;27;20036;-20
2022/07/15 04:51:44;;;;;;;3.78;1.45;;;19.00;71.80;;;;;;5088244;27;20043;-21
2022/07/15 04:54:10;;;;;;;1.40;1.30;;;19.00;71.70;;;;;;5083316;28;20029;-19
2022/07/15 04:56:35;;;;;;;1.70;1.20;;;19.10;71.90;;;;;;5086118;27;20032;-19
2022/07/15 04:59:01;;;;;;;2.05;1.50;;;19.10;71.70;;;;;;5084491;27;20517;-19
2022/07/15 05:01:26;;;;;;;2.25;1.77;;;19.00;72.10;;;;;;5081768;27;20038;-19
2022/07/15 05:03:52;;;;;;;3.53;1.77;;;19.10;72.80;;;;;;5083873;27;20517;-19
2022/07/15 05:06:18;;;;;;;3.05;1.50;;;19.00;72.40;;;;;;5085332;27;20074;-19
2022/07/15 05:08:43;;;;;;;1.60;1.10;;;19.10;72.30;;;;;;5084938;27;20052;-19
2022/07/15 05:11:09;;;;;;;2.55;1.48;;;19.20;72.20;;;;;;5084132;27;20395;-20
2022/07/15 05:13:36;;;;;;;1.77;1.20;;;19.20;72.30;;;;;;5084316;27;20093;-19
2022/07/15 05:16:02;;;;;;;1.60;1.02;;;19.20;72.30;;;;;;5081871;27;20063;-19
2022/07/15 05:18:28;;;;;;;1.35;1.23;;;19.10;72.40;;;;;;5084507;27;20124;-19
2022/07/15 05:20:53;;;;;;;1.40;1.10;;;19.20;72.30;;;;;;5082100;27;20044;-19
2022/07/15 05:23:19;;;;;;;1.45;1.08;;;19.10;72.40;;;;;;5077273;28;20032;-19
2022/07/15 05:25:45;;;;;;;1.60;1.50;;;19.00;72.90;;;;;;5076253;28;20444;-19
2022/07/15 05:28:11;;;;;;;1.23;1.05;;;19.10;72.60;;;;;;4722059;27;10000082;-19
2022/07/15 05:30:37;;;;;;;1.65;1.30;;;19.10;72.30;;;;;;5081000;27;20360;-19
2022/07/15 05:33:03;;;;;;;1.77;1.35;;;19.10;73.00;;;;;;5076836;27;20491;-19
2022/07/15 05:35:28;;;;;;;1.65;1.40;;;19.10;72.30;;;;;;5078072;27;20120;-19
2022/07/15 05:37:54;;;;;;;3.97;1.30;;;19.00;73.00;;;;;;5078786;27;20541;-19
2022/07/15 05:40:20;;;;;;;1.52;1.23;;;18.90;73.60;;;;;;5076143;27;20113;-19
2022/07/15 05:42:46;;;;;;;1.10;1.00;;;19.00;72.70;;;;;;5080214;28;20514;-19
2022/07/15 05:45:12;;;;;;;3.33;1.20;;;19.10;72.30;;;;;;5076069;27;20056;-19
2022/07/15 05:47:37;;;;;;;1.17;1.10;;;19.00;72.30;;;;;;5075212;27;20537;-20
2022/07/15 05:50:03;;;;;;;1.25;0.93;;;19.00;72.40;;;;;;5074557;27;20049;-20
2022/07/15 05:52:29;;;;;;;1.50;1.23;;;19.10;72.40;;;;;;5071325;27;20043;-20
2022/07/15 05:54:54;;;;;;;2.10;1.48;;;19.00;72.40;;;;;;5077733;27;20052;-19
2022/07/15 05:57:20;;;;;;;2.20;1.10;;;19.00;72.50;;;;;;5075293;27;20484;-20
2022/07/15 05:59:45;;;;;;;1.35;1.10;;;19.10;72.50;;;;;;5074139;28;20105;-19
2022/07/15 06:02:13;;;;;;;3.67;1.50;;;19.20;72.20;;;;;;5074321;27;20037;-20
2022/07/15 06:04:39;;;;;;;3.08;1.42;;;19.10;72.10;;;;;;5076640;27;20051;-19
2022/07/15 06:07:05;;;;;;;2.30;1.15;;;19.00;72.60;;;;;;5073277;27;20498;-19
2022/07/15 06:09:30;;;;;;;3.15;1.35;;;19.00;72.80;;;;;;5082054;27;20117;-19
2022/07/15 06:11:56;;;;;;;1.92;1.00;;;19.00;72.70;;;;;;5075343;27;20048;-19
2022/07/15 06:14:22;;;;;;;1.42;1.08;;;18.90;73.00;;;;;;5076510;27;20051;-19
2022/07/15 06:16:47;;;;;;;2.83;1.00;;;18.90;73.10;;;;;;5078024;27;20148;-19
2022/07/15 06:19:13;;;;;;;1.30;1.20;;;19.00;73.00;;;;;;5078097;27;20451;-22
2022/07/15 06:21:38;;;;;;;1.60;0.95;;;19.10;72.90;;;;;;5077248;28;20036;-28
2022/07/15 06:24:04;;;;;;;1.30;1.20;;;19.00;72.90;;;;;;5076587;27;20093;-20
2022/07/15 06:26:30;;;;;;;1.00;1.00;;;19.10;73.00;;;;;;5073875;28;20549;-20
2022/07/15 06:28:55;;;;;;;0.98;0.98;;;19.10;72.80;;;;;;5076562;27;20044;-19
2022/07/15 06:31:21;;;;;;;2.35;1.15;;;19.10;73.10;;;;;;5078048;27;20044;-19
2022/07/15 06:33:46;;;;;;;1.85;1.10;;;19.10;72.90;;;;;;5082213;27;20032;-19
2022/07/15 06:36:12;;;;;;;1.60;1.20;;;19.20;72.60;;;;;;5075359;27;20243;-19
2022/07/15 06:38:37;;;;;;;1.20;1.10;;;19.30;72.00;;;;;;5079811;27;20503;-18
2022/07/15 06:41:03;;;;;;;1.95;1.20;;;19.40;71.70;;;;;;5078371;27;20043;-19
2022/07/15 06:43:29;;;;;;;1.75;1.00;;;19.40;71.90;;;;;;5078222;27;20041;-20
2022/07/15 06:45:54;;;;;;;1.00;0.90;;;19.50;71.30;;;;;;5079229;27;20706;-19
2022/07/15 06:48:20;;;;;;;1.17;0.95;;;19.50;71.30;;;;;;5075404;27;20040;-19
2022/07/15 06:50:45;;;;;;;2.08;1.10;;;19.60;70.90;;;;;;5076951;27;20048;-19
2022/07/15 06:53:11;;;;;;;1.85;1.10;;;19.60;70.60;;;;;;5073175;28;20044;-23
2022/07/15 06:55:37;;;;;;;1.20;1.10;;;19.60;70.80;;;;;;5077722;27;20506;-19
2022/07/15 06:58:03;;;;;;;1.10;1.08;;;19.70;70.80;;;;;;5079116;27;20044;-19
2022/07/15 07:00:28;;;;;;;0.70;0.70;;;19.70;70.70;;;;;;5077919;27;20395;-19
2022/07/15 07:02:54;;;;;;;1.17;1.08;;;19.70;70.60;;;;;;5083594;27;20124;-19
2022/07/15 07:05:19;;;;;;;2.30;1.00;;;19.70;71.10;;;;;;5079154;27;20036;-19
2022/07/15 07:07:45;;;;;;;0.90;0.90;;;19.80;71.50;;;;;;5082829;27;20039;-19
2022/07/15 07:10:10;;;;;;;1.55;1.10;;;19.80;71.30;;;;;;5082388;27;20040;-19
2022/07/15 07:12:36;;;;;;;1.30;0.88;;;19.90;70.80;;;;;;5089150;27;20123;-19
2022/07/15 07:15:04;;;;;;;1.17;1.08;;;19.90;70.30;;;;;;5088329;27;20047;-19
2022/07/15 07:17:29;;;;;;;0.95;0.70;;;19.90;70.00;;;;;;5085511;28;20047;-19
2022/07/15 07:19:55;;;;;;;0.82;0.80;;;19.90;69.60;;;;;;5086635;28;20052;-19
2022/07/15 07:22:21;;;;;;;1.23;0.82;;;19.90;70.30;;;;;;5087039;27;20123;-20
2022/07/15 07:24:47;;;;;;;1.08;1.00;;;19.90;70.50;;;;;;5088868;27;20133;-20
2022/07/15 07:27:12;;;;;;;0.80;0.77;;;19.90;69.70;;;;;;5084623;27;20054;-19
2022/07/15 07:29:38;;;;;;;0.70;0.70;;;20.00;69.30;;;;;;5087528;27;20125;-19
2022/07/15 07:32:04;;;;;;;1.73;1.17;;;20.00;70.00;;;;;;5087769;27;20052;-19
2022/07/15 07:34:29;;;;;;;0.95;0.95;;;20.00;69.00;;;;;;5083569;27;20074;-19
2022/07/15 07:36:55;;;;;;;1.48;0.93;;;20.10;68.80;;;;;;5090514;27;20032;-19
2022/07/15 07:39:20;;;;;;;0.93;0.93;;;20.10;68.90;;;;;;5087744;27;20044;-19
2022/07/15 07:41:47;;;;;;;1.15;0.85;;;20.10;69.00;;;;;;5086643;27;20040;-29
2022/07/15 07:44:13;;;;;;;1.35;1.00;;;20.10;68.70;;;;;;5085222;27;20044;-19
2022/07/15 07:46:38;;;;;;;0.70;0.70;;;20.10;68.80;;;;;;5087561;27;20066;-19
2022/07/15 07:49:04;;;;;;;0.82;0.82;;;20.10;68.40;;;;;;5087853;27;20047;-19
2022/07/15 07:51:29;;;;;;;0.93;0.88;;;20.10;68.90;;;;;;5087432;27;20117;-19
2022/07/15 07:53:56;;;;;;;0.98;0.90;;;20.10;69.00;;;;;;5088485;27;20481;-20
2022/07/15 07:56:22;;;;;;;1.15;0.75;;;20.10;69.00;;;;;;5086425;27;20044;-19
2022/07/15 07:58:47;;;;;;;1.00;0.90;;;20.10;69.10;;;;;;5087896;28;20551;-19
2022/07/15 08:01:13;;;;;;;0.77;0.70;;;20.20;69.00;;;;;;5087535;27;20060;-19
2022/07/15 08:03:38;;;;;;;0.80;0.80;;;20.20;68.90;;;;;;5090343;27;20493;-29
2022/07/15 08:06:04;;;;;;;0.90;0.88;;;20.20;68.90;;;;;;5089749;27;20067;-19
2022/07/15 08:08:30;;;;;;;0.90;0.90;;;20.20;68.80;;;;;;5087603;27;20096;-19
2022/07/15 08:10:56;;;;;;;0.77;0.77;;;20.20;69.30;;;;;;5087761;27;20131;-19
2022/07/15 08:13:23;;;;;;;0.93;0.93;;;20.20;68.40;;;;;;5085294;28;20137;-19
2022/07/15 08:15:49;;;;;;;0.80;0.75;;;20.30;68.50;;;;;;5088611;27;20047;-23
2022/07/15 08:18:15;;;;;;;0.88;0.85;;;20.30;68.50;;;;;;5086987;27;20498;-19
2022/07/15 08:20:40;;;;;;;0.82;0.70;;;20.30;68.30;;;;;;5086526;27;20052;-20
2022/07/15 08:23:06;;;;;;;1.10;0.60;;;20.30;68.10;;;;;;5087641;27;20036;-19
2022/07/15 08:25:33;;;;;;;0.90;0.90;;;20.30;68.00;;;;;;5084687;27;20110;-19
2022/07/15 08:27:59;;;;;;;0.65;0.65;;;20.30;67.80;;;;;;5087628;27;20043;-20
2022/07/15 08:30:26;;;;;;;1.00;0.82;;;20.40;67.90;;;;;;5086143;27;20107;-19
2022/07/15 08:32:51;;;;;;;0.70;0.70;;;20.40;67.60;;;;;;5087374;27;20169;-19
2022/07/15 08:35:17;;;;;;;0.75;0.75;;;20.30;67.40;;;;;;5086278;27;20581;-19
2022/07/15 08:37:42;;;;;;;0.80;0.80;;;20.40;67.60;;;;;;5086513;28;20136;-19
2022/07/15 08:40:09;;;;;;;0.80;0.80;;;20.40;67.60;;;;;;5088070;27;20444;-19
2022/07/15 08:42:35;;;;;;;0.60;0.60;;;20.50;67.60;;;;;;5087089;27;20139;-19
2022/07/15 08:45:00;;;;;;;0.50;0.47;;;20.40;67.40;;;;;;5086996;27;20486;-18
2022/07/15 08:47:26;;;;;;;0.80;0.80;;;20.40;67.10;;;;;;5086756;27;20134;-19
2022/07/15 08:49:58;;;;;;;0.70;0.70;;;20.50;66.90;;;;;;5084381;28;20063;-19
2022/07/15 08:52:27;;;;;;;0.60;0.60;;;20.50;67.10;;;;;;5085638;27;20450;-20
2022/07/15 08:54:52;;;;;;;0.60;0.60;;;20.50;66.80;;;;;;5087535;27;20039;-19
2022/07/15 08:57:18;;;;;;;0.70;0.70;;;20.50;66.80;;;;;;5085940;27;20135;-19
2022/07/15 08:59:46;;;;;;;1.08;0.80;;;20.50;67.10;;;;;;5086052;28;20044;-19
2022/07/15 09:02:14;;;;;;;1.00;0.95;;;20.50;66.70;;;;;;5086349;27;20040;-19
2022/07/15 09:05:28;;;;;;;0.60;0.60;;;20.50;66.70;;;;;;5084054;28;20040;-19
2022/07/15 09:08:00;;;;;;;0.70;0.70;;;20.50;66.50;;;;;;5079568;28;20040;-19
2022/07/15 09:10:40;;;;;;;0.50;0.50;;;20.50;66.70;;;;;;5085586;27;20047;-20
2022/07/15 09:13:05;;;;;;;1.55;0.82;;;20.60;66.50;;;;;;5085518;27;20048;-19
2022/07/15 09:15:32;;;;;;;0.77;0.77;;;20.60;66.50;;;;;;5086379;27;20051;-19
2022/07/15 09:18:12;;;;;;;0.63;0.60;;;20.60;66.40;;;;;;5084837;28;20047;-19
2022/07/15 09:20:39;;;;;;;0.80;0.80;;;20.60;66.30;;;;;;5086356;27;20123;-26
2022/07/15 09:23:04;;;;;;;0.77;0.77;;;20.60;66.50;;;;;;5086942;28;20036;-23
2022/07/15 09:25:33;;;;;;;0.60;0.60;;;20.60;66.30;;;;;;5085243;27;20054;-19
2022/07/15 09:28:01;;;;;;;0.63;0.63;;;20.60;66.30;;;;;;5085741;28;20510;-19
2022/07/15 09:33:43;;;;;;;0.70;0.70;;;20.60;66.30;;;;;;5083631;28;20043;-19
2022/07/15 09:36:22;;;;;;;0.63;0.63;;;20.60;66.20;;;;;;5084804;27;20510;-19
2022/07/15 09:38:49;;;;;;;0.60;0.60;;;20.60;66.30;;;;;;5082510;27;20044;-19
2022/07/15 09:41:32;;;;;;;0.80;0.63;;;20.60;66.20;;;;;;5085155;27;20044;-18
2022/07/15 09:44:05;;;;;;;0.57;0.52;;;20.70;66.10;;;;;;5083425;28;20047;-19
2022/07/15 09:46:50;;;;;;;0.50;0.50;;;20.70;66.00;;;;;;5084007;27;20035;-19
2022/07/15 09:49:17;;;;;;;;;;;20.70;65.90;;;;;;5086028;27;21174;-19
2022/07/15 09:51:47;;;;;;;0.50;0.50;;;20.70;65.90;;;;;;5086513;27;20285;-26
2022/07/15 09:54:13;;;;;;;0.70;0.45;;;20.70;65.80;;;;;;5085133;27;20162;-19
2022/07/15 09:56:39;;;;;;;0.60;0.60;;;20.70;65.70;;;;;;5084845;27;20506;-19
2022/07/15 09:59:04;;;;;;;0.60;0.60;;;20.70;65.70;;;;;;5085086;28;20047;-19
2022/07/15 10:01:30;;;;;;;0.60;0.60;;;20.70;65.60;;;;;;5085627;27;20067;-20
2022/07/15 10:03:56;;;;;;;0.60;0.60;;;20.70;65.60;;;;;;5085988;27;20503;-18
2022/07/15 10:06:21;;;;;;;0.52;0.52;;;20.80;65.60;;;;;;5098566;27;20032;-21
2022/07/15 10:08:47;;;;;;;0.60;0.60;;;20.80;65.50;;;;;;5083679;28;20183;-20
2022/07/15 10:11:13;;;;;;;0.60;0.60;;;20.80;65.50;;;;;;5082563;27;20093;-19
2022/07/15 10:13:57;;;;;;;0.40;0.40;;;20.80;65.40;;;;;;5077659;27;20053;-19
2022/07/15 10:16:25;;;;;;;0.85;0.43;;;20.80;65.30;;;;;;5081842;27;20044;-20
2022/07/15 10:19:09;;;;;;;0.55;0.55;;;20.80;65.20;;;;;;5085588;28;20043;-19
2022/07/15 10:22:04;;;;;;;0.50;0.50;;;20.80;65.00;;;;;;5085710;27;20541;-20
2022/07/15 10:24:45;;;;;;;1.65;0.60;;;20.80;65.00;;;;;;5083557;28;20127;-19
2022/07/15 10:27:19;;;;;;;0.82;0.50;;;20.80;65.70;;;;;;5081230;28;20540;-19
2022/07/15 10:29:45;;;;;;;0.82;0.70;;;20.80;64.90;;;;;;5085274;27;20131;-19
2022/07/15 10:32:11;;;;;;;0.60;0.60;;;20.80;64.90;;;;;;5082466;28;20124;-19
2022/07/15 10:34:38;;;;;;;0.68;0.68;;;20.80;64.80;;;;;;5083726;27;20497;-18
2022/07/15 10:37:10;;;;;;;0.50;0.50;;;20.80;64.80;;;;;;5085063;27;20105;-19
2022/07/15 10:39:52;;;;;;;0.32;0.32;;;20.90;64.90;;;;;;5081048;28;20048;-19
2022/07/15 10:42:18;;;;;;;0.57;0.50;;;20.90;64.80;;;;;;5082449;28;20130;-19
2022/07/15 10:45:07;;;;;;;0.50;0.50;;;20.90;64.80;;;;;;5084147;27;20077;-19
2022/07/15 10:47:32;;;;;;;0.50;0.50;;;20.90;64.70;;;;;;5077615;27;20052;-19
2022/07/15 10:49:58;;;;;;;0.50;0.50;;;20.90;64.70;;;;;;5082821;27;20032;-19
2022/07/15 10:52:25;;;;;;;0.60;0.60;;;20.90;64.60;;;;;;5083271;27;20811;-19
2022/07/15 10:55:00;;;;;;;0.47;0.47;;;20.90;64.60;;;;;;5085548;28;20039;-19
2022/07/15 10:57:44;;;;;;;0.38;0.38;;;21.00;64.50;;;;;;5082068;27;20032;-19
2022/07/15 11:00:15;;;;;;;0.60;0.60;;;21.00;64.50;;;;;;5084749;27;20047;-19
2022/07/15 11:02:41;;;;;;;0.60;0.60;;;21.00;64.40;;;;;;5079615;27;20085;-19
2022/07/15 11:05:20;;;;;;;0.70;0.70;;;21.00;64.40;;;;;;5080091;28;21068;-19
2022/07/15 11:07:45;;;;;;;0.68;0.68;;;21.00;64.40;;;;;;5083519;27;20124;-19
2022/07/15 11:10:14;;;;;;;0.50;0.50;;;21.00;64.40;;;;;;5081177;27;20118;-19
2022/07/15 11:12:49;;;;;;;0.80;0.80;;;21.00;64.40;;;;;;5082206;27;20576;-20
2022/07/15 11:15:18;;;;;;;0.68;0.68;;;21.00;64.30;;;;;;5080936;27;20052;-19
2022/07/15 11:17:46;;;;;;;1.95;0.80;;;21.00;64.20;;;;;;5081818;27;20047;-19
2022/07/15 11:20:19;;;;;;;0.60;0.60;;;21.00;64.30;;;;;;5080735;27;20052;-19
2022/07/15 11:22:47;;;;;;;1.27;0.77;;;21.00;64.20;;;;;;5080713;27;20101;-19
2022/07/15 11:25:21;;;;;;;0.50;0.50;;;21.00;64.20;;;;;;5080215;27;20818;-19
2022/07/15 11:28:00;;;;;;;0.60;0.60;;;21.10;64.30;;;;;;5081459;27;20040;-20
2022/07/15 11:30:31;;;;;;;1.13;0.70;;;21.10;64.20;;;;;;5080295;27;20040;-19
2022/07/15 11:32:57;;;;;;;0.40;0.40;;;21.10;64.20;;;;;;5076869;27;20117;-19
2022/07/15 11:35:23;;;;;;;0.70;0.70;;;21.10;64.30;;;;;;5098744;27;20052;-28
2022/07/15 11:37:51;;;;;;;0.60;0.60;;;21.10;64.20;;;;;;5082545;27;20043;-20
2022/07/15 11:45:46;;;;;;;0.50;0.50;;;21.10;64.20;;;;;;5074316;28;19969;-20
2022/07/15 11:48:11;;;;;;;0.40;0.40;;;21.20;64.20;;;;;;5079541;28;20498;-19
2022/07/15 11:50:37;;;;;;;0.68;0.50;;;21.20;64.30;;;;;;5073503;27;20048;-22
2022/07/15 11:53:15;;;;;;;0.95;0.50;;;21.20;64.30;;;;;;5080497;28;20089;-19
2022/07/15 11:56:01;;;;;;;0.60;0.60;;;21.20;64.50;;;;;;5083804;28;20449;-19
2022/07/15 11:58:43;;;;;;;1.10;0.60;;;21.20;64.70;;;;;;5085767;27;20036;-19
2022/07/15 12:01:09;;;;;;;0.75;0.60;;;21.20;65.00;;;;;;5088674;27;20040;-19
2022/07/15 12:03:42;;;;;;;1.10;0.65;;;21.20;65.10;;;;;;5086543;27;20318;-19
2022/07/15 12:06:07;;;;;;;1.85;0.80;;;21.20;65.30;;;;;;5084729;28;20514;-19
2022/07/15 12:08:42;;;;;;;0.73;0.60;;;21.20;65.10;;;;;;5086081;27;20097;-19
2022/07/15 12:11:17;;;;;;;0.60;0.60;;;21.20;65.30;;;;;;5086810;28;20063;-28
2022/07/15 12:14:03;;;;;;;0.73;0.73;;;21.30;65.20;;;;;;5084880;27;20047;-19
2022/07/15 12:16:38;;;;;;;1.40;0.93;;;21.20;65.10;;;;;;5082845;27;20047;-20
2022/07/15 12:19:08;;;;;;;0.82;0.60;;;21.20;65.00;;;;;;5103196;27;20059;-20
2022/07/15 12:21:35;;;;;;;0.80;0.80;;;21.30;65.00;;;;;;5086157;28;20519;-19
2022/07/15 12:24:03;;;;;;;0.65;0.65;;;21.30;64.90;;;;;;5086317;28;20052;-20
2022/07/15 12:26:28;;;;;;;1.45;0.65;;;21.30;64.80;;;;;;5085176;27;20473;-19
2022/07/15 12:28:55;;;;;;;0.93;0.85;;;21.30;64.80;;;;;;5086119;27;20544;-19
2022/07/15 12:31:27;;;;;;;0.75;0.50;;;21.30;64.70;;;;;;5087056;28;20497;-19
2022/07/15 12:33:53;;;;;;;1.10;0.70;;;21.30;64.60;;;;;;5088529;27;20132;-19
2022/07/15 12:36:20;;;;;;;0.65;0.65;;;21.40;64.60;;;;;;5088230;27;20123;-26
2022/07/15 12:39:01;;;;;;;0.82;0.70;;;21.40;64.60;;;;;;5085737;27;20067;-20
2022/07/15 12:41:26;;;;;;;0.80;0.50;;;21.40;64.50;;;;;;5086528;27;20525;-19
2022/07/15 12:44:02;;;;;;;0.50;0.50;;;21.30;64.40;;;;;;5086290;28;20047;-19
2022/07/15 12:46:48;;;;;;;0.57;0.50;;;21.40;64.50;;;;;;5086344;27;20058;-19
2022/07/15 12:49:42;;;;;;;0.73;0.65;;;21.40;64.50;;;;;;5087254;28;20510;-19
2022/07/15 12:52:15;;;;;;;0.32;0.30;;;21.40;64.30;;;;;;5085487;27;20077;-19
2022/07/15 12:54:40;;;;;;;0.40;0.40;;;21.40;64.30;;;;;;5085741;27;20032;-19
2022/07/15 12:57:06;;;;;;;0.88;0.68;;;21.40;65.00;;;;;;5085581;28;20063;-23
2022/07/15 12:59:49;;;;;;;0.50;0.50;;;21.40;64.20;;;;;;5086326;27;20040;-19
2022/07/15 13:02:15;;;;;;;0.50;0.50;;;21.40;64.20;;;;;;5085096;27;20047;-20
2022/07/15 13:04:40;;;;;;;0.63;0.60;;;21.40;64.20;;;;;;5085036;27;20028;-19